sensor_id;sensor_type;location;lat;lon;timestamp;P1;durP1;ratioP1;P2;durP2;ratioP2
41865;SDS011;27539;43.222;27.558;2024-01-07T00:01:23;1.10;;;1.00;;
41865;SDS011;27539;43.222;27.558;2024-01-07T00:03:48;1.90;;;1.10;;
41865;SDS011;27539;43.222;27.558;2024-01-07T00:06:14;0.95;;;0.88;;
41865;SDS011;27539;43.222;27.558;2024-01-07T00:08:39;1.58;;;1.20;;
41865;SDS011;27539;43.222;27.558;2024-01-07T00:11:05;1.45;;;1.30;;
41865;SDS011;27539;43.222;27.558;2024-01-07T00:13:30;2.63;;;1.13;;
41865;SDS011;27539;43.222;27.558;2024-01-07T00:15:56;2.45;;;0.93;;
41865;SDS011;27539;43.222;27.558;2024-01-07T00:18:21;4.53;;;1.73;;
41865;SDS011;27539;43.222;27.558;2024-01-07T00:20:49;1.92;;;1.35;;
41865;SDS011;27539;43.222;27.558;2024-01-07T00:23:15;2.60;;;1.13;;
41865;SDS011;27539;43.222;27.558;2024-01-07T00:25:40;2.17;;;1.25;;
41865;SDS011;27539;43.222;27.558;2024-01-07T00:28:06;1.05;;;0.98;;
41865;SDS011;27539;43.222;27.558;2024-01-07T00:30:31;1.75;;;1.38;;
41865;SDS011;27539;43.222;27.558;2024-01-07T00:32:57;2.88;;;1.40;;
41865;SDS011;27539;43.222;27.558;2024-01-07T00:35:22;1.00;;;0.95;;
41865;SDS011;27539;43.222;27.558;2024-01-07T00:37:48;1.20;;;1.13;;
41865;SDS011;27539;43.222;27.558;2024-01-07T00:40:13;1.25;;;1.15;;
41865;SDS011;27539;43.222;27.558;2024-01-07T00:42:39;2.42;;;1.33;;
41865;SDS011;27539;43.222;27.558;2024-01-07T00:45:05;1.63;;;1.35;;
41865;SDS011;27539;43.222;27.558;2024-01-07T00:47:31;1.85;;;1.35;;
41865;SDS011;27539;43.222;27.558;2024-01-07T00:49:56;1.52;;;1.42;;
41865;SDS011;27539;43.222;27.558;2024-01-07T00:52:22;2.75;;;1.25;;
41865;SDS011;27539;43.222;27.558;2024-01-07T00:54:48;1.10;;;1.00;;
41865;SDS011;27539;43.222;27.558;2024-01-07T00:57:14;1.63;;;0.77;;
41865;SDS011;27539;43.222;27.558;2024-01-07T00:59:39;2.15;;;1.08;;
41865;SDS011;27539;43.222;27.558;2024-01-07T01:02:05;2.20;;;1.55;;
41865;SDS011;27539;43.222;27.558;2024-01-07T01:04:30;1.40;;;1.05;;
41865;SDS011;27539;43.222;27.558;2024-01-07T01:06:56;2.95;;;1.27;;
41865;SDS011;27539;43.222;27.558;2024-01-07T01:09:21;1.38;;;1.05;;
41865;SDS011;27539;43.222;27.558;2024-01-07T01:11:47;2.20;;;0.80;;
41865;SDS011;27539;43.222;27.558;2024-01-07T01:14:14;1.50;;;1.13;;
41865;SDS011;27539;43.222;27.558;2024-01-07T01:16:40;2.03;;;1.35;;
41865;SDS011;27539;43.222;27.558;2024-01-07T01:19:06;2.30;;;1.30;;
41865;SDS011;27539;43.222;27.558;2024-01-07T01:21:31;2.95;;;1.13;;
41865;SDS011;27539;43.222;27.558;2024-01-07T01:23:57;1.25;;;0.93;;
41865;SDS011;27539;43.222;27.558;2024-01-07T01:26:23;2.80;;;1.35;;
41865;SDS011;27539;43.222;27.558;2024-01-07T01:28:48;2.03;;;1.23;;
41865;SDS011;27539;43.222;27.558;2024-01-07T01:31:14;1.65;;;1.08;;
41865;SDS011;27539;43.222;27.558;2024-01-07T01:33:39;1.90;;;1.58;;
41865;SDS011;27539;43.222;27.558;2024-01-07T01:36:05;12.40;;;1.13;;
41865;SDS011;27539;43.222;27.558;2024-01-07T01:38:31;3.00;;;1.25;;
41865;SDS011;27539;43.222;27.558;2024-01-07T01:40:57;1.95;;;1.20;;
41865;SDS011;27539;43.222;27.558;2024-01-07T01:43:23;3.10;;;1.48;;
41865;SDS011;27539;43.222;27.558;2024-01-07T01:48:15;1.27;;;1.17;;
41865;SDS011;27539;43.222;27.558;2024-01-07T01:50:40;1.38;;;1.27;;
41865;SDS011;27539;43.222;27.558;2024-01-07T01:53:06;1.27;;;1.02;;
41865;SDS011;27539;43.222;27.558;2024-01-07T01:55:32;2.33;;;1.10;;
41865;SDS011;27539;43.222;27.558;2024-01-07T01:57:57;3.17;;;1.40;;
41865;SDS011;27539;43.222;27.558;2024-01-07T02:00:28;3.25;;;1.15;;
41865;SDS011;27539;43.222;27.558;2024-01-07T02:02:57;2.50;;;1.45;;
41865;SDS011;27539;43.222;27.558;2024-01-07T02:05:22;1.05;;;1.02;;
41865;SDS011;27539;43.222;27.558;2024-01-07T02:07:48;1.42;;;1.10;;
41865;SDS011;27539;43.222;27.558;2024-01-07T02:10:14;2.83;;;1.48;;
41865;SDS011;27539;43.222;27.558;2024-01-07T02:12:40;3.72;;;1.30;;
41865;SDS011;27539;43.222;27.558;2024-01-07T02:15:06;2.00;;;1.30;;
41865;SDS011;27539;43.222;27.558;2024-01-07T02:17:32;1.15;;;0.77;;
41865;SDS011;27539;43.222;27.558;2024-01-07T02:19:57;5.03;;;1.25;;
41865;SDS011;27539;43.222;27.558;2024-01-07T02:22:23;2.00;;;1.00;;
41865;SDS011;27539;43.222;27.558;2024-01-07T02:24:48;6.88;;;1.27;;
41865;SDS011;27539;43.222;27.558;2024-01-07T02:27:14;2.30;;;0.88;;
41865;SDS011;27539;43.222;27.558;2024-01-07T02:29:39;1.08;;;1.00;;
41865;SDS011;27539;43.222;27.558;2024-01-07T02:32:05;13.50;;;1.88;;
41865;SDS011;27539;43.222;27.558;2024-01-07T02:34:31;1.85;;;1.08;;
41865;SDS011;27539;43.222;27.558;2024-01-07T02:36:56;5.60;;;0.85;;
41865;SDS011;27539;43.222;27.558;2024-01-07T02:39:22;1.58;;;1.20;;
41865;SDS011;27539;43.222;27.558;2024-01-07T02:41:48;10.52;;;1.55;;
41865;SDS011;27539;43.222;27.558;2024-01-07T02:44:14;1.45;;;1.35;;
41865;SDS011;27539;43.222;27.558;2024-01-07T02:46:40;5.43;;;1.35;;
41865;SDS011;27539;43.222;27.558;2024-01-07T02:49:05;4.18;;;0.88;;
41865;SDS011;27539;43.222;27.558;2024-01-07T02:51:31;3.97;;;1.45;;
41865;SDS011;27539;43.222;27.558;2024-01-07T02:53:56;0.98;;;0.90;;
41865;SDS011;27539;43.222;27.558;2024-01-07T02:56:22;1.25;;;1.15;;
41865;SDS011;27539;43.222;27.558;2024-01-07T02:58:47;1.80;;;1.33;;
41865;SDS011;27539;43.222;27.558;2024-01-07T03:01:13;2.65;;;1.75;;
41865;SDS011;27539;43.222;27.558;2024-01-07T03:03:38;2.20;;;1.35;;
41865;SDS011;27539;43.222;27.558;2024-01-07T03:06:04;2.35;;;1.60;;
41865;SDS011;27539;43.222;27.558;2024-01-07T03:08:30;1.45;;;1.33;;
41865;SDS011;27539;43.222;27.558;2024-01-07T03:10:55;2.30;;;1.58;;
41865;SDS011;27539;43.222;27.558;2024-01-07T03:13:21;1.48;;;1.23;;
41865;SDS011;27539;43.222;27.558;2024-01-07T03:15:47;3.00;;;1.20;;
41865;SDS011;27539;43.222;27.558;2024-01-07T03:18:12;3.63;;;1.80;;
41865;SDS011;27539;43.222;27.558;2024-01-07T03:20:38;5.72;;;2.25;;
41865;SDS011;27539;43.222;27.558;2024-01-07T03:23:03;1.83;;;1.55;;
41865;SDS011;27539;43.222;27.558;2024-01-07T03:25:29;6.38;;;2.78;;
41865;SDS011;27539;43.222;27.558;2024-01-07T03:27:54;4.07;;;1.38;;
41865;SDS011;27539;43.222;27.558;2024-01-07T03:30:20;1.67;;;1.40;;
41865;SDS011;27539;43.222;27.558;2024-01-07T03:32:45;4.45;;;2.10;;
41865;SDS011;27539;43.222;27.558;2024-01-07T03:35:11;11.70;;;5.80;;
41865;SDS011;27539;43.222;27.558;2024-01-07T03:37:36;5.68;;;3.83;;
41865;SDS011;27539;43.222;27.558;2024-01-07T03:40:02;4.30;;;1.88;;
41865;SDS011;27539;43.222;27.558;2024-01-07T03:42:28;1.20;;;1.13;;
41865;SDS011;27539;43.222;27.558;2024-01-07T03:44:53;5.47;;;1.92;;
41865;SDS011;27539;43.222;27.558;2024-01-07T03:47:19;2.22;;;1.40;;
41865;SDS011;27539;43.222;27.558;2024-01-07T03:49:44;1.73;;;1.35;;
41865;SDS011;27539;43.222;27.558;2024-01-07T03:52:10;1.73;;;1.63;;
41865;SDS011;27539;43.222;27.558;2024-01-07T03:54:35;2.38;;;1.75;;
41865;SDS011;27539;43.222;27.558;2024-01-07T03:57:01;2.38;;;1.45;;
41865;SDS011;27539;43.222;27.558;2024-01-07T03:59:27;5.10;;;1.88;;
41865;SDS011;27539;43.222;27.558;2024-01-07T04:01:53;3.47;;;1.50;;
41865;SDS011;27539;43.222;27.558;2024-01-07T04:04:20;2.20;;;1.67;;
41865;SDS011;27539;43.222;27.558;2024-01-07T04:06:46;4.25;;;2.22;;
41865;SDS011;27539;43.222;27.558;2024-01-07T04:09:12;3.72;;;2.42;;
41865;SDS011;27539;43.222;27.558;2024-01-07T04:11:40;3.70;;;2.50;;
41865;SDS011;27539;43.222;27.558;2024-01-07T04:14:06;2.55;;;2.30;;
41865;SDS011;27539;43.222;27.558;2024-01-07T04:16:33;2.57;;;1.90;;
41865;SDS011;27539;43.222;27.558;2024-01-07T04:18:58;3.92;;;2.28;;
41865;SDS011;27539;43.222;27.558;2024-01-07T04:21:24;7.00;;;3.28;;
41865;SDS011;27539;43.222;27.558;2024-01-07T04:23:49;10.07;;;5.78;;
41865;SDS011;27539;43.222;27.558;2024-01-07T04:26:15;18.73;;;4.45;;
41865;SDS011;27539;43.222;27.558;2024-01-07T04:28:40;11.25;;;4.32;;
41865;SDS011;27539;43.222;27.558;2024-01-07T04:31:07;15.55;;;7.50;;
41865;SDS011;27539;43.222;27.558;2024-01-07T04:33:33;8.77;;;5.53;;
41865;SDS011;27539;43.222;27.558;2024-01-07T04:35:58;11.30;;;6.97;;
41865;SDS011;27539;43.222;27.558;2024-01-07T04:40:51;11.75;;;5.93;;
41865;SDS011;27539;43.222;27.558;2024-01-07T04:43:17;11.82;;;6.30;;
41865;SDS011;27539;43.222;27.558;2024-01-07T04:48:09;8.07;;;4.60;;
41865;SDS011;27539;43.222;27.558;2024-01-07T04:50:34;8.95;;;4.22;;
41865;SDS011;27539;43.222;27.558;2024-01-07T04:53:00;8.00;;;3.78;;
41865;SDS011;27539;43.222;27.558;2024-01-07T04:55:26;5.38;;;2.95;;
41865;SDS011;27539;43.222;27.558;2024-01-07T04:57:52;3.45;;;2.30;;
41865;SDS011;27539;43.222;27.558;2024-01-07T05:00:18;3.17;;;2.58;;
41865;SDS011;27539;43.222;27.558;2024-01-07T05:02:43;2.00;;;1.77;;
41865;SDS011;27539;43.222;27.558;2024-01-07T05:05:09;4.40;;;2.60;;
41865;SDS011;27539;43.222;27.558;2024-01-07T05:07:34;5.82;;;2.55;;
41865;SDS011;27539;43.222;27.558;2024-01-07T05:10:00;3.90;;;2.17;;
41865;SDS011;27539;43.222;27.558;2024-01-07T05:12:26;3.25;;;1.88;;
41865;SDS011;27539;43.222;27.558;2024-01-07T05:14:51;2.38;;;1.90;;
41865;SDS011;27539;43.222;27.558;2024-01-07T05:17:17;1.90;;;1.80;;
41865;SDS011;27539;43.222;27.558;2024-01-07T05:19:43;1.88;;;1.65;;
41865;SDS011;27539;43.222;27.558;2024-01-07T05:22:08;3.95;;;1.85;;
41865;SDS011;27539;43.222;27.558;2024-01-07T05:24:36;2.88;;;2.03;;
41865;SDS011;27539;43.222;27.558;2024-01-07T05:27:03;3.95;;;2.38;;
41865;SDS011;27539;43.222;27.558;2024-01-07T05:29:29;2.33;;;1.75;;
41865;SDS011;27539;43.222;27.558;2024-01-07T05:31:55;5.53;;;2.65;;
41865;SDS011;27539;43.222;27.558;2024-01-07T05:34:20;2.22;;;2.03;;
41865;SDS011;27539;43.222;27.558;2024-01-07T05:36:46;10.05;;;3.28;;
41865;SDS011;27539;43.222;27.558;2024-01-07T05:39:11;3.58;;;2.75;;
41865;SDS011;27539;43.222;27.558;2024-01-07T05:41:37;8.93;;;3.45;;
41865;SDS011;27539;43.222;27.558;2024-01-07T05:44:06;6.85;;;3.85;;
41865;SDS011;27539;43.222;27.558;2024-01-07T05:46:32;11.48;;;4.65;;
41865;SDS011;27539;43.222;27.558;2024-01-07T05:48:58;11.80;;;4.80;;
41865;SDS011;27539;43.222;27.558;2024-01-07T05:51:24;12.45;;;6.10;;
41865;SDS011;27539;43.222;27.558;2024-01-07T05:53:49;10.40;;;5.22;;
41865;SDS011;27539;43.222;27.558;2024-01-07T05:56:15;12.50;;;6.28;;
41865;SDS011;27539;43.222;27.558;2024-01-07T05:58:40;11.45;;;6.28;;
41865;SDS011;27539;43.222;27.558;2024-01-07T06:01:07;10.63;;;6.55;;
41865;SDS011;27539;43.222;27.558;2024-01-07T06:05:59;12.63;;;6.55;;
41865;SDS011;27539;43.222;27.558;2024-01-07T06:08:25;12.48;;;7.53;;
41865;SDS011;27539;43.222;27.558;2024-01-07T06:10:51;9.80;;;6.78;;
41865;SDS011;27539;43.222;27.558;2024-01-07T06:13:17;15.93;;;8.02;;
41865;SDS011;27539;43.222;27.558;2024-01-07T06:15:42;12.25;;;7.93;;
41865;SDS011;27539;43.222;27.558;2024-01-07T06:18:08;12.00;;;7.78;;
41865;SDS011;27539;43.222;27.558;2024-01-07T06:20:33;10.43;;;7.32;;
41865;SDS011;27539;43.222;27.558;2024-01-07T06:22:59;10.38;;;6.45;;
41865;SDS011;27539;43.222;27.558;2024-01-07T06:25:24;7.43;;;4.57;;
41865;SDS011;27539;43.222;27.558;2024-01-07T06:27:51;7.38;;;3.65;;
41865;SDS011;27539;43.222;27.558;2024-01-07T06:30:17;4.15;;;1.90;;
41865;SDS011;27539;43.222;27.558;2024-01-07T06:32:44;1.73;;;1.63;;
41865;SDS011;27539;43.222;27.558;2024-01-07T06:35:11;4.18;;;2.13;;
41865;SDS011;27539;43.222;27.558;2024-01-07T06:37:37;6.13;;;1.93;;
41865;SDS011;27539;43.222;27.558;2024-01-07T06:40:02;5.07;;;1.85;;
41865;SDS011;27539;43.222;27.558;2024-01-07T06:42:28;5.13;;;2.07;;
41865;SDS011;27539;43.222;27.558;2024-01-07T06:44:54;2.53;;;1.58;;
41865;SDS011;27539;43.222;27.558;2024-01-07T06:47:19;2.92;;;1.88;;
41865;SDS011;27539;43.222;27.558;2024-01-07T06:49:45;4.05;;;1.70;;
41865;SDS011;27539;43.222;27.558;2024-01-07T06:52:10;2.67;;;1.77;;
41865;SDS011;27539;43.222;27.558;2024-01-07T06:54:36;1.88;;;1.67;;
41865;SDS011;27539;43.222;27.558;2024-01-07T06:57:02;2.50;;;1.80;;
41865;SDS011;27539;43.222;27.558;2024-01-07T06:59:27;3.00;;;2.50;;
41865;SDS011;27539;43.222;27.558;2024-01-07T07:01:53;2.90;;;1.92;;
41865;SDS011;27539;43.222;27.558;2024-01-07T07:04:21;2.17;;;1.98;;
41865;SDS011;27539;43.222;27.558;2024-01-07T07:06:47;4.63;;;2.92;;
41865;SDS011;27539;43.222;27.558;2024-01-07T07:09:13;3.17;;;2.57;;
41865;SDS011;27539;43.222;27.558;2024-01-07T07:11:40;4.22;;;2.78;;
41865;SDS011;27539;43.222;27.558;2024-01-07T07:14:06;1.60;;;1.50;;
41865;SDS011;27539;43.222;27.558;2024-01-07T07:16:31;3.25;;;1.63;;
41865;SDS011;27539;43.222;27.558;2024-01-07T07:18:57;5.90;;;2.03;;
41865;SDS011;27539;43.222;27.558;2024-01-07T07:21:22;2.13;;;1.48;;
41865;SDS011;27539;43.222;27.558;2024-01-07T07:23:48;2.08;;;1.75;;
41865;SDS011;27539;43.222;27.558;2024-01-07T07:26:13;5.00;;;1.70;;
41865;SDS011;27539;43.222;27.558;2024-01-07T07:28:39;1.75;;;1.13;;
41865;SDS011;27539;43.222;27.558;2024-01-07T07:31:04;1.65;;;1.48;;
41865;SDS011;27539;43.222;27.558;2024-01-07T07:33:30;2.00;;;1.35;;
41865;SDS011;27539;43.222;27.558;2024-01-07T07:35:55;0.80;;;0.80;;
41865;SDS011;27539;43.222;27.558;2024-01-07T07:38:21;2.38;;;1.45;;
41865;SDS011;27539;43.222;27.558;2024-01-07T07:40:47;1.35;;;1.20;;
41865;SDS011;27539;43.222;27.558;2024-01-07T07:43:18;1.90;;;1.02;;
41865;SDS011;27539;43.222;27.558;2024-01-07T07:45:47;0.80;;;0.80;;
41865;SDS011;27539;43.222;27.558;2024-01-07T07:48:12;1.73;;;1.17;;
41865;SDS011;27539;43.222;27.558;2024-01-07T07:50:38;1.63;;;1.30;;
41865;SDS011;27539;43.222;27.558;2024-01-07T07:53:05;2.38;;;0.98;;
41865;SDS011;27539;43.222;27.558;2024-01-07T07:55:31;1.60;;;1.35;;
41865;SDS011;27539;43.222;27.558;2024-01-07T07:57:56;0.55;;;0.52;;
41865;SDS011;27539;43.222;27.558;2024-01-07T08:00:23;1.17;;;0.80;;
41865;SDS011;27539;43.222;27.558;2024-01-07T08:02:49;2.92;;;1.50;;
41865;SDS011;27539;43.222;27.558;2024-01-07T08:05:15;0.30;;;0.30;;
41865;SDS011;27539;43.222;27.558;2024-01-07T08:07:40;0.47;;;0.47;;
41865;SDS011;27539;43.222;27.558;2024-01-07T08:10:06;0.77;;;0.77;;
41865;SDS011;27539;43.222;27.558;2024-01-07T08:12:33;6.07;;;0.93;;
41865;SDS011;27539;43.222;27.558;2024-01-07T08:14:59;1.25;;;0.70;;
41865;SDS011;27539;43.222;27.558;2024-01-07T08:17:24;3.65;;;0.57;;
41865;SDS011;27539;43.222;27.558;2024-01-07T08:19:50;6.18;;;4.43;;
41865;SDS011;27539;43.222;27.558;2024-01-07T08:22:15;1.17;;;1.08;;
41865;SDS011;27539;43.222;27.558;2024-01-07T08:24:41;2.53;;;1.23;;
41865;SDS011;27539;43.222;27.558;2024-01-07T08:29:34;12.32;;;6.28;;
41865;SDS011;27539;43.222;27.558;2024-01-07T08:32:00;11.35;;;5.30;;
41865;SDS011;27539;43.222;27.558;2024-01-07T08:34:26;5.00;;;2.60;;
41865;SDS011;27539;43.222;27.558;2024-01-07T08:36:52;14.20;;;6.50;;
41865;SDS011;27539;43.222;27.558;2024-01-07T08:39:19;5.90;;;2.53;;
41865;SDS011;27539;43.222;27.558;2024-01-07T08:41:44;10.10;;;5.47;;
41865;SDS011;27539;43.222;27.558;2024-01-07T08:44:10;4.28;;;3.70;;
41865;SDS011;27539;43.222;27.558;2024-01-07T08:46:36;7.63;;;5.47;;
41865;SDS011;27539;43.222;27.558;2024-01-07T08:49:02;3.00;;;2.78;;
41865;SDS011;27539;43.222;27.558;2024-01-07T08:51:28;5.32;;;3.13;;
41865;SDS011;27539;43.222;27.558;2024-01-07T08:53:54;11.13;;;4.40;;
41865;SDS011;27539;43.222;27.558;2024-01-07T08:56:20;7.37;;;3.43;;
41865;SDS011;27539;43.222;27.558;2024-01-07T08:58:46;4.45;;;1.95;;
41865;SDS011;27539;43.222;27.558;2024-01-07T09:01:11;3.90;;;2.03;;
41865;SDS011;27539;43.222;27.558;2024-01-07T09:03:39;0.65;;;0.65;;
41865;SDS011;27539;43.222;27.558;2024-01-07T09:06:05;0.85;;;0.60;;
41865;SDS011;27539;43.222;27.558;2024-01-07T09:08:30;2.58;;;1.95;;
41865;SDS011;27539;43.222;27.558;2024-01-07T09:10:56;0.75;;;0.75;;
41865;SDS011;27539;43.222;27.558;2024-01-07T09:13:22;2.50;;;0.75;;
41865;SDS011;27539;43.222;27.558;2024-01-07T09:15:48;0.98;;;0.80;;
41865;SDS011;27539;43.222;27.558;2024-01-07T09:18:13;3.65;;;1.42;;
41865;SDS011;27539;43.222;27.558;2024-01-07T09:20:39;0.85;;;0.60;;
41865;SDS011;27539;43.222;27.558;2024-01-07T09:23:04;9.77;;;0.88;;
41865;SDS011;27539;43.222;27.558;2024-01-07T09:25:30;0.93;;;0.73;;
41865;SDS011;27539;43.222;27.558;2024-01-07T09:27:56;1.27;;;0.88;;
41865;SDS011;27539;43.222;27.558;2024-01-07T09:30:21;2.60;;;1.08;;
41865;SDS011;27539;43.222;27.558;2024-01-07T09:32:47;14.98;;;1.52;;
41865;SDS011;27539;43.222;27.558;2024-01-07T09:35:12;1.70;;;1.20;;
41865;SDS011;27539;43.222;27.558;2024-01-07T09:37:38;1.33;;;0.63;;
41865;SDS011;27539;43.222;27.558;2024-01-07T09:40:03;2.53;;;1.20;;
41865;SDS011;27539;43.222;27.558;2024-01-07T09:42:31;2.30;;;1.00;;
41865;SDS011;27539;43.222;27.558;2024-01-07T09:44:56;1.27;;;0.73;;
41865;SDS011;27539;43.222;27.558;2024-01-07T09:47:25;1.17;;;0.57;;
41865;SDS011;27539;43.222;27.558;2024-01-07T09:49:51;0.60;;;0.60;;
41865;SDS011;27539;43.222;27.558;2024-01-07T09:52:16;11.60;;;0.83;;
41865;SDS011;27539;43.222;27.558;2024-01-07T09:54:43;3.17;;;0.95;;
41865;SDS011;27539;43.222;27.558;2024-01-07T09:57:13;2.38;;;0.75;;
41865;SDS011;27539;43.222;27.558;2024-01-07T09:59:39;0.93;;;0.63;;
41865;SDS011;27539;43.222;27.558;2024-01-07T10:02:04;4.82;;;1.17;;
41865;SDS011;27539;43.222;27.558;2024-01-07T10:04:30;1.00;;;0.70;;
41865;SDS011;27539;43.222;27.558;2024-01-07T10:06:56;1.38;;;0.57;;
41865;SDS011;27539;43.222;27.558;2024-01-07T10:09:22;1.17;;;0.70;;
41865;SDS011;27539;43.222;27.558;2024-01-07T10:11:50;1.27;;;0.60;;
41865;SDS011;27539;43.222;27.558;2024-01-07T10:14:16;4.47;;;0.77;;
41865;SDS011;27539;43.222;27.558;2024-01-07T10:16:41;1.50;;;0.95;;
41865;SDS011;27539;43.222;27.558;2024-01-07T10:19:07;1.90;;;0.88;;
41865;SDS011;27539;43.222;27.558;2024-01-07T10:21:33;1.92;;;0.93;;
41865;SDS011;27539;43.222;27.558;2024-01-07T10:24:09;1.00;;;1.00;;
41865;SDS011;27539;43.222;27.558;2024-01-07T10:26:35;2.25;;;1.65;;
41865;SDS011;27539;43.222;27.558;2024-01-07T10:29:05;4.70;;;1.20;;
41865;SDS011;27539;43.222;27.558;2024-01-07T10:31:34;1.92;;;0.57;;
41865;SDS011;27539;43.222;27.558;2024-01-07T10:34:00;2.50;;;0.88;;
41865;SDS011;27539;43.222;27.558;2024-01-07T10:36:26;2.22;;;1.05;;
41865;SDS011;27539;43.222;27.558;2024-01-07T10:38:51;4.68;;;0.88;;
41865;SDS011;27539;43.222;27.558;2024-01-07T10:41:18;2.03;;;0.73;;
41865;SDS011;27539;43.222;27.558;2024-01-07T10:43:47;5.30;;;0.85;;
41865;SDS011;27539;43.222;27.558;2024-01-07T10:46:14;2.80;;;0.90;;
41865;SDS011;27539;43.222;27.558;2024-01-07T10:49:18;25.70;;;13.88;;
41865;SDS011;27539;43.222;27.558;2024-01-07T10:51:44;6.10;;;1.95;;
41865;SDS011;27539;43.222;27.558;2024-01-07T10:54:15;3.22;;;1.20;;
41865;SDS011;27539;43.222;27.558;2024-01-07T10:56:46;3.17;;;1.52;;
41865;SDS011;27539;43.222;27.558;2024-01-07T10:59:15;4.28;;;1.30;;
41865;SDS011;27539;43.222;27.558;2024-01-07T11:01:42;2.17;;;0.98;;
41865;SDS011;27539;43.222;27.558;2024-01-07T11:04:10;16.17;;;2.00;;
41865;SDS011;27539;43.222;27.558;2024-01-07T11:06:50;0.90;;;0.80;;
41865;SDS011;27539;43.222;27.558;2024-01-07T11:09:31;7.18;;;1.48;;
41865;SDS011;27539;43.222;27.558;2024-01-07T11:12:01;2.50;;;1.20;;
41865;SDS011;27539;43.222;27.558;2024-01-07T11:14:34;3.03;;;1.35;;
41865;SDS011;27539;43.222;27.558;2024-01-07T11:17:04;4.53;;;1.45;;
41865;SDS011;27539;43.222;27.558;2024-01-07T11:19:34;1.50;;;0.90;;
41865;SDS011;27539;43.222;27.558;2024-01-07T11:24:55;6.00;;;1.60;;
41865;SDS011;27539;43.222;27.558;2024-01-07T11:27:22;7.90;;;0.98;;
41865;SDS011;27539;43.222;27.558;2024-01-07T11:30:04;2.40;;;1.20;;
41865;SDS011;27539;43.222;27.558;2024-01-07T11:32:34;5.40;;;1.60;;
41865;SDS011;27539;43.222;27.558;2024-01-07T11:35:00;5.07;;;1.45;;
41865;SDS011;27539;43.222;27.558;2024-01-07T11:37:27;14.00;;;2.85;;
41865;SDS011;27539;43.222;27.558;2024-01-07T11:39:56;2.15;;;0.80;;
41865;SDS011;27539;43.222;27.558;2024-01-07T11:42:25;7.45;;;1.45;;
41865;SDS011;27539;43.222;27.558;2024-01-07T11:44:54;4.25;;;1.65;;
41865;SDS011;27539;43.222;27.558;2024-01-07T11:47:21;5.78;;;1.77;;
41865;SDS011;27539;43.222;27.558;2024-01-07T11:49:47;3.83;;;1.92;;
41865;SDS011;27539;43.222;27.558;2024-01-07T11:52:16;5.00;;;1.90;;
41865;SDS011;27539;43.222;27.558;2024-01-07T11:54:42;6.22;;;1.98;;
41865;SDS011;27539;43.222;27.558;2024-01-07T11:57:08;4.63;;;1.88;;
41865;SDS011;27539;43.222;27.558;2024-01-07T12:02:01;7.40;;;1.25;;
41865;SDS011;27539;43.222;27.558;2024-01-07T12:04:29;2.55;;;1.42;;
41865;SDS011;27539;43.222;27.558;2024-01-07T12:06:55;8.70;;;2.35;;
41865;SDS011;27539;43.222;27.558;2024-01-07T12:09:21;1.98;;;1.15;;
41865;SDS011;27539;43.222;27.558;2024-01-07T12:11:46;4.25;;;1.80;;
41865;SDS011;27539;43.222;27.558;2024-01-07T12:14:12;3.78;;;1.77;;
41865;SDS011;27539;43.222;27.558;2024-01-07T12:16:39;4.03;;;1.13;;
41865;SDS011;27539;43.222;27.558;2024-01-07T12:19:04;5.30;;;1.65;;
41865;SDS011;27539;43.222;27.558;2024-01-07T12:21:30;1.55;;;0.88;;
41865;SDS011;27539;43.222;27.558;2024-01-07T12:23:56;3.13;;;1.27;;
41865;SDS011;27539;43.222;27.558;2024-01-07T12:26:26;6.00;;;2.00;;
41865;SDS011;27539;43.222;27.558;2024-01-07T12:28:53;15.25;;;1.60;;
41865;SDS011;27539;43.222;27.558;2024-01-07T12:31:20;2.17;;;1.20;;
41865;SDS011;27539;43.222;27.558;2024-01-07T12:33:46;11.03;;;1.97;;
41865;SDS011;27539;43.222;27.558;2024-01-07T12:36:12;8.27;;;1.77;;
41865;SDS011;27539;43.222;27.558;2024-01-07T12:38:38;6.68;;;1.88;;
41865;SDS011;27539;43.222;27.558;2024-01-07T12:41:04;6.80;;;2.95;;
41865;SDS011;27539;43.222;27.558;2024-01-07T12:43:30;7.03;;;2.03;;
41865;SDS011;27539;43.222;27.558;2024-01-07T12:45:56;7.38;;;2.47;;
41865;SDS011;27539;43.222;27.558;2024-01-07T12:48:23;3.40;;;1.75;;
41865;SDS011;27539;43.222;27.558;2024-01-07T12:50:48;6.32;;;1.83;;
41865;SDS011;27539;43.222;27.558;2024-01-07T12:53:14;8.23;;;3.33;;
41865;SDS011;27539;43.222;27.558;2024-01-07T12:55:40;2.63;;;1.52;;
41865;SDS011;27539;43.222;27.558;2024-01-07T12:58:05;9.68;;;2.20;;
41865;SDS011;27539;43.222;27.558;2024-01-07T13:00:31;2.28;;;1.98;;
41865;SDS011;27539;43.222;27.558;2024-01-07T13:02:58;2.60;;;1.77;;
41865;SDS011;27539;43.222;27.558;2024-01-07T13:05:24;5.05;;;1.98;;
41865;SDS011;27539;43.222;27.558;2024-01-07T13:07:50;2.77;;;1.57;;
41865;SDS011;27539;43.222;27.558;2024-01-07T13:10:16;8.70;;;1.10;;
41865;SDS011;27539;43.222;27.558;2024-01-07T13:12:41;6.28;;;2.05;;
41865;SDS011;27539;43.222;27.558;2024-01-07T13:15:07;8.17;;;2.27;;
41865;SDS011;27539;43.222;27.558;2024-01-07T13:17:33;13.10;;;1.80;;
41865;SDS011;27539;43.222;27.558;2024-01-07T13:19:59;14.68;;;1.88;;
41865;SDS011;27539;43.222;27.558;2024-01-07T13:22:25;9.85;;;2.25;;
41865;SDS011;27539;43.222;27.558;2024-01-07T13:24:51;7.07;;;1.85;;
41865;SDS011;27539;43.222;27.558;2024-01-07T13:27:19;11.38;;;3.05;;
41865;SDS011;27539;43.222;27.558;2024-01-07T13:29:44;5.80;;;2.42;;
41865;SDS011;27539;43.222;27.558;2024-01-07T13:32:13;17.42;;;2.60;;
41865;SDS011;27539;43.222;27.558;2024-01-07T13:34:44;14.95;;;1.90;;
41865;SDS011;27539;43.222;27.558;2024-01-07T13:37:10;5.55;;;2.50;;
41865;SDS011;27539;43.222;27.558;2024-01-07T13:39:36;8.43;;;2.30;;
41865;SDS011;27539;43.222;27.558;2024-01-07T13:42:02;4.78;;;1.65;;
41865;SDS011;27539;43.222;27.558;2024-01-07T13:44:27;6.33;;;2.70;;
41865;SDS011;27539;43.222;27.558;2024-01-07T13:46:53;8.45;;;4.32;;
41865;SDS011;27539;43.222;27.558;2024-01-07T13:49:18;10.57;;;4.25;;
41865;SDS011;27539;43.222;27.558;2024-01-07T13:51:44;6.05;;;3.15;;
41865;SDS011;27539;43.222;27.558;2024-01-07T13:54:10;4.85;;;2.42;;
41865;SDS011;27539;43.222;27.558;2024-01-07T13:56:39;8.38;;;2.35;;
41865;SDS011;27539;43.222;27.558;2024-01-07T13:59:09;6.85;;;1.85;;
41865;SDS011;27539;43.222;27.558;2024-01-07T14:01:36;11.07;;;2.65;;
41865;SDS011;27539;43.222;27.558;2024-01-07T14:04:02;7.03;;;2.75;;
41865;SDS011;27539;43.222;27.558;2024-01-07T14:06:28;4.15;;;2.47;;
41865;SDS011;27539;43.222;27.558;2024-01-07T14:08:53;7.38;;;2.70;;
41865;SDS011;27539;43.222;27.558;2024-01-07T14:11:19;5.78;;;2.67;;
41865;SDS011;27539;43.222;27.558;2024-01-07T14:13:46;15.55;;;3.10;;
41865;SDS011;27539;43.222;27.558;2024-01-07T14:16:12;2.92;;;2.17;;
41865;SDS011;27539;43.222;27.558;2024-01-07T14:18:41;6.07;;;2.28;;
41865;SDS011;27539;43.222;27.558;2024-01-07T14:21:06;5.07;;;2.55;;
41865;SDS011;27539;43.222;27.558;2024-01-07T14:23:33;4.63;;;1.98;;
41865;SDS011;27539;43.222;27.558;2024-01-07T14:25:59;8.23;;;2.45;;
41865;SDS011;27539;43.222;27.558;2024-01-07T14:28:25;5.28;;;2.05;;
41865;SDS011;27539;43.222;27.558;2024-01-07T14:30:51;4.00;;;2.17;;
41865;SDS011;27539;43.222;27.558;2024-01-07T14:33:17;6.60;;;2.60;;
41865;SDS011;27539;43.222;27.558;2024-01-07T14:35:43;4.07;;;2.78;;
41865;SDS011;27539;43.222;27.558;2024-01-07T14:38:08;5.05;;;2.97;;
41865;SDS011;27539;43.222;27.558;2024-01-07T14:40:34;17.55;;;4.97;;
41865;SDS011;27539;43.222;27.558;2024-01-07T14:42:59;12.50;;;3.17;;
41865;SDS011;27539;43.222;27.558;2024-01-07T14:45:28;14.25;;;3.72;;